createdAt,value
2019-05-22T00:03:34.083Z,1006.30
2019-05-22T00:18:34.201Z,1006.55
2019-05-22T00:33:36.312Z,1006.68
2019-05-22T00:48:36.570Z,1006.67
2019-05-22T01:03:36.871Z,1006.82
2019-05-22T01:18:37.073Z,1006.73
2019-05-22T01:33:37.175Z,1007.03
2019-05-22T01:48:37.291Z,1007.09
2019-05-22T02:03:37.511Z,1007.10
2019-05-22T02:18:37.660Z,1007.11
2019-05-22T02:33:37.811Z,1007.05
2019-05-22T02:48:42.105Z,1007.27
2019-05-22T03:03:43.155Z,1007.37
2019-05-22T03:18:43.440Z,1007.50
2019-05-22T03:33:44.065Z,1007.60
2019-05-22T03:48:44.216Z,1007.68
2019-05-22T04:03:44.819Z,1007.84
2019-05-22T04:18:45.004Z,1008.04
2019-05-22T04:33:45.238Z,1008.11
2019-05-22T04:48:46.346Z,1008.09
2019-05-22T05:03:46.563Z,1008.19
2019-05-22T05:18:46.670Z,1008.26
2019-05-22T05:33:46.858Z,1008.50
2019-05-22T05:48:47.175Z,1008.53
2019-05-22T06:03:47.414Z,1008.58
2019-05-22T06:18:47.510Z,1008.69
2019-05-22T06:33:47.704Z,1008.81
2019-05-22T06:48:47.902Z,1008.99
2019-05-22T07:03:48.120Z,1009.13
2019-05-22T07:18:48.351Z,1009.21
2019-05-22T07:33:49.795Z,1009.34
2019-05-22T07:48:50.001Z,1009.49
2019-05-22T08:03:50.150Z,1009.58
2019-05-22T08:18:50.294Z,1009.84
2019-05-22T08:33:50.417Z,1009.78
2019-05-22T08:48:50.623Z,1009.72
2019-05-22T09:03:50.775Z,1009.86
2019-05-22T09:18:50.854Z,1010.03
2019-05-22T09:33:51.051Z,1010.15
2019-05-22T09:48:51.147Z,1010.32
2019-05-22T10:03:51.236Z,1010.44
2019-05-22T10:18:53.396Z,1010.55
2019-05-22T10:33:53.708Z,1010.65
2019-05-22T10:48:53.940Z,1010.79
2019-05-22T11:03:54.142Z,1011.02
2019-05-22T11:18:54.245Z,1011.05
2019-05-22T11:33:54.453Z,1011.12
2019-05-22T11:48:54.576Z,1011.24
2019-05-22T12:03:54.751Z,1011.27
2019-05-22T12:18:58.442Z,1011.34
2019-05-22T12:33:59.025Z,1011.47
2019-05-22T12:49:00.219Z,1011.52
2019-05-22T13:04:00.408Z,1011.50
2019-05-22T13:19:01.120Z,1011.55
2019-05-22T13:34:01.311Z,1011.53
2019-05-22T13:49:01.375Z,1011.70
2019-05-22T14:04:01.591Z,1011.99
2019-05-22T14:19:01.900Z,1012.00
2019-05-22T14:34:01.958Z,1012.14
2019-05-22T14:49:02.621Z,1012.18
2019-05-22T15:04:02.768Z,1012.25
2019-05-22T15:19:02.907Z,1012.37
2019-05-22T15:34:03.139Z,1012.33
2019-05-22T15:49:03.337Z,1012.38
2019-05-22T16:04:03.518Z,1012.57
2019-05-22T16:19:03.673Z,1012.67
2019-05-22T16:34:03.889Z,1012.57
2019-05-22T16:49:04.000Z,1012.76
2019-05-22T17:04:04.651Z,1012.85
2019-05-22T17:19:25.284Z,1012.91
2019-05-22T17:34:10.461Z,1012.86
2019-05-22T17:49:11.093Z,1012.90
2019-05-22T18:04:12.075Z,1013.09
2019-05-22T18:19:12.421Z,1013.25
2019-05-22T18:34:12.706Z,1013.33
2019-05-22T18:49:12.921Z,1013.47
2019-05-22T19:04:13.229Z,1013.62
2019-05-22T19:19:13.468Z,1013.79
2019-05-22T19:34:13.636Z,1013.94
2019-05-22T19:49:13.767Z,1014.11
2019-05-22T20:04:13.990Z,1014.25
2019-05-22T20:19:14.090Z,1014.41
2019-05-22T20:34:14.289Z,1014.48
2019-05-22T20:49:14.477Z,1014.59
2019-05-22T21:04:14.619Z,1014.70
2019-05-22T21:19:14.808Z,1014.79
2019-05-22T21:34:14.934Z,1014.70
2019-05-22T21:49:15.141Z,1014.65
2019-05-22T22:04:15.316Z,1014.65
2019-05-22T22:19:15.481Z,1014.72
2019-05-22T22:34:15.612Z,1014.72
2019-05-22T22:49:16.735Z,1014.81
2019-05-22T23:04:16.919Z,1014.97
2019-05-22T23:19:18.066Z,1014.92
2019-05-22T23:34:18.198Z,1015.10
2019-05-22T23:49:18.371Z,1015.08
